Atlantic Clover — 3FVD6 — position and weather

sailwx.info

Track history (hours):
 
Tides and Currents Weather Stations Pressure Air Temp Water Temp Dewpoint Dewpoint Depression Visibility Wind Speed Wind Dir Waves Ship Positions

Atlantic Clover

Last reported at 2016-Jan-21 01:17 UTC. Time now 2016-Feb-14 10:12 UTC.
Position N 48°06' W 125°34'.
Warning: this ship's position is 24 days out of date.

Length 180 m; draft 9.2 m.

Type: Cargo ship. MMSI: 371263000.

Date/timePositionNaut miles runAvg speedWind from/ knotsBaromVisibWave heightAir tempDewpointWater temp
2016-Jan-21 01:17N 48°06' W 125°34'810.2
2016-Jan-21 00:29N 48°13' W 125°27'1112.0
2016-Jan-20 23:32N 48°20' W 125°14'1212.0
2016-Jan-20 22:32N 48°29' W 125°03'5012.5
2016-Jan-20 18:33N 48°17' W 123°50'1212.0
2016-Jan-20 17:32N 48°16' W 123°31'1010.1
2016-Jan-20 16:33N 48°23' W 123°21'1010.4
2016-Jan-20 15:33N 48°32' W 123°13'1211.8
2016-Jan-20 14:34N 48°43' W 123°11'9 9.3
2016-Jan-20 13:33N 48°52' W 123°05'1313.3
2016-Jan-20 12:33N 49°01' W 123°20'1212.4
2016-Jan-20 11:34N 49°13' W 123°22'1110.6
2016-Jan-20 10:34N 49°19' W 123°09'3 3.0
2016-Jan-20 09:31N 49°18' W 123°04'0 0.0
2016-Jan-20 08:31N 49°18' W 123°04'0 0.0
2016-Jan-20 07:31N 49°18' W 123°04'0 0.0
2016-Jan-20 06:31N 49°18' W 123°04'0 0.0
2016-Jan-20 05:31N 49°18' W 123°04'0 0.0
2016-Jan-20 04:31N 49°18' W 123°04'0 0.0
2016-Jan-20 03:31N 49°18' W 123°04'0 0.0
2016-Jan-20 02:31N 49°18' W 123°04'0 0.0
2016-Jan-20 01:31N 49°18' W 123°04'0 0.0
2016-Jan-20 00:31N 49°18' W 123°04'0 0.0
2016-Jan-19 23:31N 49°18' W 123°04'0 0.0
2016-Jan-19 22:31N 49°18' W 123°04'0 0.0
2016-Jan-19 21:31N 49°18' W 123°04'0 0.0
2016-Jan-19 20:31N 49°18' W 123°04'0 0.0
2016-Jan-19 19:31N 49°18' W 123°04'0 0.0
2016-Jan-19 18:31N 49°18' W 123°04'0 0.0
2016-Jan-19 17:31N 49°18' W 123°04'0 0.0
2016-Jan-19 16:31N 49°18' W 123°04'0 0.0
2016-Jan-19 15:31N 49°18' W 123°04'0 0.0
2016-Jan-19 14:31N 49°18' W 123°04'0 0.0
2016-Jan-19 13:31N 49°18' W 123°04'0 0.0
2016-Jan-19 12:28N 49°18' W 123°04'0 0.0
2016-Jan-19 11:31N 49°18' W 123°04'0 0.0
2016-Jan-19 10:31N 49°18' W 123°04'0 0.0
2016-Jan-19 09:28N 49°18' W 123°04'0 0.0
2016-Jan-19 08:31N 49°18' W 123°04'1 0.8
2016-Jan-19 07:33N 49°18' W 123°05'5 5.1
2016-Jan-19 06:33N 49°20' W 123°13'1 0.6
2016-Jan-19 05:32N 49°20' W 123°13'0 0.0
2016-Jan-19 04:32N 49°20' W 123°13'0 0.0
2016-Jan-19 03:32N 49°20' W 123°13'0 0.0
2016-Jan-19 02:32N 49°20' W 123°13'0 0.0
2016-Jan-19 01:32N 49°20' W 123°13'0 0.0
2016-Jan-19 00:32N 49°20' W 123°13'0 0.0
2016-Jan-18 23:32N 49°20' W 123°13'0 0.0
2016-Jan-18 22:32N 49°20' W 123°13'0 0.0
2016-Jan-18 21:32N 49°20' W 123°13'0 0.0
2016-Jan-18 20:32N 49°20' W 123°13'0 0.0
2016-Jan-18 19:32N 49°20' W 123°13'0 0.0
2016-Jan-18 18:32N 49°20' W 123°13'0 0.0
2016-Jan-18 17:32N 49°20' W 123°13'0 0.0
2016-Jan-18 16:32N 49°20' W 123°13'0 0.0
2016-Jan-18 15:32N 49°20' W 123°13'0 0.0
2016-Jan-18 14:32N 49°20' W 123°13'0 0.0
2016-Jan-18 13:31N 49°20' W 123°13'0 0.1
2016-Jan-18 12:31N 49°20' W 123°13'0 0.0
2016-Jan-18 11:31N 49°20' W 123°13'0 0.1
2016-Jan-18 10:31N 49°20' W 123°13'0 0.0
2016-Jan-18 09:31N 49°20' W 123°13'0 0.0
2016-Jan-18 08:31N 49°20' W 123°13'0 0.0
2016-Jan-18 07:31N 49°20' W 123°13'0 0.0
2016-Jan-18 06:31N 49°20' W 123°13'0 0.0
2016-Jan-18 05:31N 49°20' W 123°13'0 0.0
2016-Jan-18 04:31N 49°20' W 123°13'0 0.0
2016-Jan-18 03:31N 49°20' W 123°13'0 0.0
2016-Jan-18 02:31N 49°20' W 123°13'0 0.0
2016-Jan-18 01:31N 49°20' W 123°13'0 0.0
2016-Jan-18 00:31N 49°20' W 123°13'0 0.0
2016-Jan-17 23:31N 49°20' W 123°13'0 0.0
2016-Jan-17 22:31N 49°20' W 123°13'0 0.0
2016-Jan-17 21:31N 49°20' W 123°13'0 0.0
2016-Jan-17 20:31N 49°20' W 123°13'0 0.0
2016-Jan-17 19:31N 49°20' W 123°13'0 0.1
2016-Jan-17 18:31N 49°20' W 123°13'0 0.0
2016-Jan-17 17:31N 49°20' W 123°13'0 0.1
2016-Jan-17 16:31N 49°20' W 123°13'0 0.1
2016-Jan-17 15:31N 49°20' W 123°13'0 0.0
2016-Jan-17 14:31N 49°20' W 123°13'0 0.0
2016-Jan-17 13:31N 49°20' W 123°13'0 0.0
2016-Jan-17 12:31N 49°20' W 123°13'0 0.0
2016-Jan-17 11:31N 49°20' W 123°13'0 0.0
2016-Jan-17 10:31N 49°20' W 123°13'0 0.0
2016-Jan-17 09:31N 49°20' W 123°13'0 0.0
2016-Jan-17 08:31N 49°20' W 123°13'0 0.0
2016-Jan-17 07:31N 49°20' W 123°13'0 0.0
2016-Jan-17 06:31N 49°20' W 123°13'0 0.0
2016-Jan-17 05:31N 49°20' W 123°13'0 0.0
2016-Jan-17 04:31N 49°20' W 123°13'0 0.0
2016-Jan-17 03:32N 49°20' W 123°13'0 0.0
2016-Jan-17 02:33N 49°20' W 123°13'0 0.0
2016-Jan-17 01:32N 49°20' W 123°13'0 0.0
2016-Jan-17 00:33N 49°20' W 123°13'0 0.0
2016-Jan-16 23:32N 49°20' W 123°13'0 0.0
2016-Jan-16 22:33N 49°20' W 123°13'0 0.0
2016-Jan-16 21:32N 49°20' W 123°13'0 0.0
2016-Jan-16 20:33N 49°20' W 123°13'0 0.0
2016-Jan-16 19:33N 49°20' W 123°13'0 0.0
2016-Jan-16 18:32N 49°20' W 123°13'0 0.0
2016-Jan-16 17:33N 49°20' W 123°13'0 0.0
2016-Jan-16 16:32N 49°20' W 123°13'0 0.1
2016-Jan-16 15:33N 49°20' W 123°13'0 0.0
2016-Jan-16 14:33N 49°20' W 123°13'0 0.0
2016-Jan-16 13:33N 49°20' W 123°13'0 0.0
2016-Jan-16 12:33N 49°20' W 123°13'0 0.0
2016-Jan-16 11:32N 49°20' W 123°13'0 0.0
2016-Jan-16 10:32N 49°20' W 123°13'0 0.0
2016-Jan-16 09:33N 49°20' W 123°13'0 0.0
2016-Jan-16 08:33N 49°20' W 123°13'0 0.0
2016-Jan-16 07:33N 49°20' W 123°13'0 0.0
2016-Jan-16 06:33N 49°20' W 123°13'0 0.0
2016-Jan-16 05:32N 49°20' W 123°13'0 0.0
2016-Jan-16 04:32N 49°20' W 123°13'0 0.0
2016-Jan-16 03:33N 49°20' W 123°13'0 0.1
2016-Jan-16 02:32N 49°20' W 123°13'0 0.1
2016-Jan-16 01:33N 49°20' W 123°13'0 0.0
2016-Jan-16 00:32N 49°20' W 123°13'0 0.1
2016-Jan-15 23:33N 49°20' W 123°13'0 0.1
2016-Jan-15 22:33N 49°20' W 123°13'0 0.0
2016-Jan-15 21:32N 49°20' W 123°13'0 0.0
2016-Jan-15 20:32N 49°20' W 123°13'0 0.0
2016-Jan-15 19:33N 49°20' W 123°13'0 0.0
2016-Jan-15 18:30N 49°20' W 123°13'0 0.0
2016-Jan-15 17:33N 49°20' W 123°13'0 0.1
2016-Jan-15 16:32N 49°20' W 123°13'0 0.1
2016-Jan-15 15:32N 49°20' W 123°13'0 0.0
2016-Jan-15 14:32N 49°20' W 123°13'0 0.1
2016-Jan-15 13:33N 49°20' W 123°13'0 0.1
2016-Jan-15 12:32N 49°20' W 123°13'0 0.0
2016-Jan-15 11:32N 49°20' W 123°13'0 0.0
2016-Jan-15 10:32N 49°20' W 123°13'0 0.1
2016-Jan-15 09:33N 49°20' W 123°13'0 0.1
2016-Jan-15 08:32N 49°20' W 123°13'0 0.0
2016-Jan-15 07:33N 49°20' W 123°13'0 0.0
2016-Jan-15 06:32N 49°20' W 123°13'0 0.0
2016-Jan-15 05:33N 49°20' W 123°13'0 0.0
2016-Jan-15 04:33N 49°20' W 123°13'0 0.0
2016-Jan-15 03:32N 49°20' W 123°13'0 0.1
2016-Jan-15 02:32N 49°20' W 123°13'0 0.0
2016-Jan-15 01:33N 49°20' W 123°13'0 0.1
2016-Jan-15 00:33N 49°20' W 123°13'0 0.1
2016-Jan-14 23:32N 49°20' W 123°13'0 0.1
2016-Jan-14 22:33N 49°20' W 123°13'0 0.0
2016-Jan-14 21:33N 49°20' W 123°13'0 0.0
2016-Jan-14 20:33N 49°20' W 123°13'0 0.0
2016-Jan-14 19:33N 49°20' W 123°13'0 0.0
2016-Jan-14 18:33N 49°20' W 123°13'0 0.0
2016-Jan-14 17:33N 49°20' W 123°13'0 0.1
2016-Jan-14 16:33N 49°20' W 123°13'0 0.1
2016-Jan-14 15:32N 49°20' W 123°13'0 0.0
2016-Jan-14 14:33N 49°20' W 123°13'0 0.0
2016-Jan-14 13:33N 49°20' W 123°13'0 0.0
2016-Jan-14 12:32N 49°20' W 123°13'0 0.0
2016-Jan-14 11:33N 49°20' W 123°13'0 0.0
2016-Jan-14 10:33N 49°20' W 123°13'0 0.0
2016-Jan-14 09:33N 49°20' W 123°13'0 0.1
2016-Jan-14 08:33N 49°20' W 123°13'0 0.1
2016-Jan-14 07:32N 49°20' W 123°13'0 0.2
2016-Jan-14 06:32N 49°20' W 123°13'0 0.0
2016-Jan-14 05:33N 49°20' W 123°13'0 0.0
2016-Jan-14 04:33N 49°20' W 123°13'0 0.0
2016-Jan-14 03:32N 49°20' W 123°13'0 0.0
2016-Jan-14 02:33N 49°20' W 123°13'0 0.0
2016-Jan-14 01:33N 49°20' W 123°13'0 0.0
2016-Jan-14 00:32N 49°20' W 123°13'0 0.2
2016-Jan-13 23:32N 49°20' W 123°13'0 0.0
2016-Jan-13 22:33N 49°20' W 123°13'1010.3
2016-Jan-13 21:33N 49°10' W 123°20'1212.1
2016-Jan-13 20:33N 48°59' W 123°13'1312.7
2016-Jan-13 19:34N 48°49' W 123°01'1211.8
2016-Jan-13 18:33N 48°42' W 123°15'1413.5
2016-Jan-13 17:33N 48°29' W 123°10'1110.7
2016-Jan-13 16:33N 48°21' W 123°22'9 9.2
2016-Jan-13 15:33N 48°13' W 123°29'8 8.2
2016-Jan-13 14:33N 48°13' W 123°41'8 8.0
2016-Jan-13 13:33N 48°13' W 123°53'9 9.4
2016-Jan-13 12:33N 48°17' W 124°06'4012.5
2016-Jan-13 09:23N 48°23' W 125°05'6 7.3
2016-Jan-13 08:32N 48°19' W 125°12'  
Track history (hours):
 
Tides and Currents Weather Stations Pressure Air Temp Water Temp Dewpoint Dewpoint Depression Visibility Wind Speed Wind Dir Waves Ship Positions

Atlantic Clover

Last reported at 2016-Jan-21 01:17 UTC. Time now 2016-Feb-14 10:12 UTC.
Position N 48°06' W 125°34'.
Warning: this ship's position is 24 days out of date.

Length 180 m; draft 9.2 m.

Type: Cargo ship. MMSI: 371263000.

Date/timePositionNaut miles runAvg speedWind from/ knotsBaromVisibWave heightAir tempDewpointWater temp
2016-Jan-21 01:17N 48°06' W 125°34'810.2
2016-Jan-21 00:29N 48°13' W 125°27'1112.0
2016-Jan-20 23:32N 48°20' W 125°14'1212.0
2016-Jan-20 22:32N 48°29' W 125°03'5012.5
2016-Jan-20 18:33N 48°17' W 123°50'1212.0
2016-Jan-20 17:32N 48°16' W 123°31'1010.1
2016-Jan-20 16:33N 48°23' W 123°21'1010.4
2016-Jan-20 15:33N 48°32' W 123°13'1211.8
2016-Jan-20 14:34N 48°43' W 123°11'9 9.3
2016-Jan-20 13:33N 48°52' W 123°05'1313.3
2016-Jan-20 12:33N 49°01' W 123°20'1212.4
2016-Jan-20 11:34N 49°13' W 123°22'1110.6
2016-Jan-20 10:34N 49°19' W 123°09'3 3.0
2016-Jan-20 09:31N 49°18' W 123°04'0 0.0
2016-Jan-20 08:31N 49°18' W 123°04'0 0.0
2016-Jan-20 07:31N 49°18' W 123°04'0 0.0
2016-Jan-20 06:31N 49°18' W 123°04'0 0.0
2016-Jan-20 05:31N 49°18' W 123°04'0 0.0
2016-Jan-20 04:31N 49°18' W 123°04'0 0.0
2016-Jan-20 03:31N 49°18' W 123°04'0 0.0
2016-Jan-20 02:31N 49°18' W 123°04'0 0.0
2016-Jan-20 01:31N 49°18' W 123°04'0 0.0
2016-Jan-20 00:31N 49°18' W 123°04'0 0.0
2016-Jan-19 23:31N 49°18' W 123°04'0 0.0
2016-Jan-19 22:31N 49°18' W 123°04'0 0.0
2016-Jan-19 21:31N 49°18' W 123°04'0 0.0
2016-Jan-19 20:31N 49°18' W 123°04'0 0.0
2016-Jan-19 19:31N 49°18' W 123°04'0 0.0
2016-Jan-19 18:31N 49°18' W 123°04'0 0.0
2016-Jan-19 17:31N 49°18' W 123°04'0 0.0
2016-Jan-19 16:31N 49°18' W 123°04'0 0.0
2016-Jan-19 15:31N 49°18' W 123°04'0 0.0
2016-Jan-19 14:31N 49°18' W 123°04'0 0.0
2016-Jan-19 13:31N 49°18' W 123°04'0 0.0
2016-Jan-19 12:28N 49°18' W 123°04'0 0.0
2016-Jan-19 11:31N 49°18' W 123°04'0 0.0
2016-Jan-19 10:31N 49°18' W 123°04'0 0.0
2016-Jan-19 09:28N 49°18' W 123°04'0 0.0
2016-Jan-19 08:31N 49°18' W 123°04'1 0.8
2016-Jan-19 07:33N 49°18' W 123°05'5 5.1
2016-Jan-19 06:33N 49°20' W 123°13'1 0.6
2016-Jan-19 05:32N 49°20' W 123°13'0 0.0
2016-Jan-19 04:32N 49°20' W 123°13'0 0.0
2016-Jan-19 03:32N 49°20' W 123°13'0 0.0
2016-Jan-19 02:32N 49°20' W 123°13'0 0.0
2016-Jan-19 01:32N 49°20' W 123°13'0 0.0
2016-Jan-19 00:32N 49°20' W 123°13'0 0.0
2016-Jan-18 23:32N 49°20' W 123°13'0 0.0
2016-Jan-18 22:32N 49°20' W 123°13'0 0.0
2016-Jan-18 21:32N 49°20' W 123°13'0 0.0
2016-Jan-18 20:32N 49°20' W 123°13'0 0.0
2016-Jan-18 19:32N 49°20' W 123°13'0 0.0
2016-Jan-18 18:32N 49°20' W 123°13'0 0.0
2016-Jan-18 17:32N 49°20' W 123°13'0 0.0
2016-Jan-18 16:32N 49°20' W 123°13'0 0.0
2016-Jan-18 15:32N 49°20' W 123°13'0 0.0
2016-Jan-18 14:32N 49°20' W 123°13'0 0.0
2016-Jan-18 13:31N 49°20' W 123°13'0 0.1
2016-Jan-18 12:31N 49°20' W 123°13'0 0.0
2016-Jan-18 11:31N 49°20' W 123°13'0 0.1
2016-Jan-18 10:31N 49°20' W 123°13'0 0.0
2016-Jan-18 09:31N 49°20' W 123°13'0 0.0
2016-Jan-18 08:31N 49°20' W 123°13'0 0.0
2016-Jan-18 07:31N 49°20' W 123°13'0 0.0
2016-Jan-18 06:31N 49°20' W 123°13'0 0.0
2016-Jan-18 05:31N 49°20' W 123°13'0 0.0
2016-Jan-18 04:31N 49°20' W 123°13'0 0.0
2016-Jan-18 03:31N 49°20' W 123°13'0 0.0
2016-Jan-18 02:31N 49°20' W 123°13'0 0.0
2016-Jan-18 01:31N 49°20' W 123°13'0 0.0
2016-Jan-18 00:31N 49°20' W 123°13'0 0.0
2016-Jan-17 23:31N 49°20' W 123°13'0 0.0
2016-Jan-17 22:31N 49°20' W 123°13'0 0.0
2016-Jan-17 21:31N 49°20' W 123°13'0 0.0
2016-Jan-17 20:31N 49°20' W 123°13'0 0.0
2016-Jan-17 19:31N 49°20' W 123°13'0 0.1
2016-Jan-17 18:31N 49°20' W 123°13'0 0.0
2016-Jan-17 17:31N 49°20' W 123°13'0 0.1
2016-Jan-17 16:31N 49°20' W 123°13'0 0.1
2016-Jan-17 15:31N 49°20' W 123°13'0 0.0
2016-Jan-17 14:31N 49°20' W 123°13'0 0.0
2016-Jan-17 13:31N 49°20' W 123°13'0 0.0
2016-Jan-17 12:31N 49°20' W 123°13'0 0.0
2016-Jan-17 11:31N 49°20' W 123°13'0 0.0
2016-Jan-17 10:31N 49°20' W 123°13'0 0.0
2016-Jan-17 09:31N 49°20' W 123°13'0 0.0
2016-Jan-17 08:31N 49°20' W 123°13'0 0.0
2016-Jan-17 07:31N 49°20' W 123°13'0 0.0
2016-Jan-17 06:31N 49°20' W 123°13'0 0.0
2016-Jan-17 05:31N 49°20' W 123°13'0 0.0
2016-Jan-17 04:31N 49°20' W 123°13'0 0.0
2016-Jan-17 03:32N 49°20' W 123°13'0 0.0
2016-Jan-17 02:33N 49°20' W 123°13'0 0.0
2016-Jan-17 01:32N 49°20' W 123°13'0 0.0
2016-Jan-17 00:33N 49°20' W 123°13'0 0.0
2016-Jan-16 23:32N 49°20' W 123°13'0 0.0
2016-Jan-16 22:33N 49°20' W 123°13'0 0.0
2016-Jan-16 21:32N 49°20' W 123°13'0 0.0
2016-Jan-16 20:33N 49°20' W 123°13'0 0.0
2016-Jan-16 19:33N 49°20' W 123°13'0 0.0
2016-Jan-16 18:32N 49°20' W 123°13'0 0.0
2016-Jan-16 17:33N 49°20' W 123°13'0 0.0
2016-Jan-16 16:32N 49°20' W 123°13'0 0.1
2016-Jan-16 15:33N 49°20' W 123°13'0 0.0
2016-Jan-16 14:33N 49°20' W 123°13'0 0.0
2016-Jan-16 13:33N 49°20' W 123°13'0 0.0
2016-Jan-16 12:33N 49°20' W 123°13'0 0.0
2016-Jan-16 11:32N 49°20' W 123°13'0 0.0
2016-Jan-16 10:32N 49°20' W 123°13'0 0.0
2016-Jan-16 09:33N 49°20' W 123°13'0 0.0
2016-Jan-16 08:33N 49°20' W 123°13'0 0.0
2016-Jan-16 07:33N 49°20' W 123°13'0 0.0
2016-Jan-16 06:33N 49°20' W 123°13'0 0.0
2016-Jan-16 05:32N 49°20' W 123°13'0 0.0
2016-Jan-16 04:32N 49°20' W 123°13'0 0.0
2016-Jan-16 03:33N 49°20' W 123°13'0 0.1
2016-Jan-16 02:32N 49°20' W 123°13'0 0.1
2016-Jan-16 01:33N 49°20' W 123°13'0 0.0
2016-Jan-16 00:32N 49°20' W 123°13'0 0.1
2016-Jan-15 23:33N 49°20' W 123°13'0 0.1
2016-Jan-15 22:33N 49°20' W 123°13'0 0.0
2016-Jan-15 21:32N 49°20' W 123°13'0 0.0
2016-Jan-15 20:32N 49°20' W 123°13'0 0.0
2016-Jan-15 19:33N 49°20' W 123°13'0 0.0
2016-Jan-15 18:30N 49°20' W 123°13'0 0.0
2016-Jan-15 17:33N 49°20' W 123°13'0 0.1
2016-Jan-15 16:32N 49°20' W 123°13'0 0.1
2016-Jan-15 15:32N 49°20' W 123°13'0 0.0
2016-Jan-15 14:32N 49°20' W 123°13'0 0.1
2016-Jan-15 13:33N 49°20' W 123°13'0 0.1
2016-Jan-15 12:32N 49°20' W 123°13'0 0.0
2016-Jan-15 11:32N 49°20' W 123°13'0 0.0
2016-Jan-15 10:32N 49°20' W 123°13'0 0.1
2016-Jan-15 09:33N 49°20' W 123°13'0 0.1
2016-Jan-15 08:32N 49°20' W 123°13'0 0.0
2016-Jan-15 07:33N 49°20' W 123°13'0 0.0
2016-Jan-15 06:32N 49°20' W 123°13'0 0.0
2016-Jan-15 05:33N 49°20' W 123°13'0 0.0
2016-Jan-15 04:33N 49°20' W 123°13'0 0.0
2016-Jan-15 03:32N 49°20' W 123°13'0 0.1
2016-Jan-15 02:32N 49°20' W 123°13'0 0.0
2016-Jan-15 01:33N 49°20' W 123°13'0 0.1
2016-Jan-15 00:33N 49°20' W 123°13'0 0.1
2016-Jan-14 23:32N 49°20' W 123°13'0 0.1
2016-Jan-14 22:33N 49°20' W 123°13'0 0.0
2016-Jan-14 21:33N 49°20' W 123°13'0 0.0
2016-Jan-14 20:33N 49°20' W 123°13'0 0.0
2016-Jan-14 19:33N 49°20' W 123°13'0 0.0
2016-Jan-14 18:33N 49°20' W 123°13'0 0.0
2016-Jan-14 17:33N 49°20' W 123°13'0 0.1
2016-Jan-14 16:33N 49°20' W 123°13'0 0.1
2016-Jan-14 15:32N 49°20' W 123°13'0 0.0
2016-Jan-14 14:33N 49°20' W 123°13'0 0.0
2016-Jan-14 13:33N 49°20' W 123°13'0 0.0
2016-Jan-14 12:32N 49°20' W 123°13'0 0.0
2016-Jan-14 11:33N 49°20' W 123°13'0 0.0
2016-Jan-14 10:33N 49°20' W 123°13'0 0.0
2016-Jan-14 09:33N 49°20' W 123°13'0 0.1
2016-Jan-14 08:33N 49°20' W 123°13'0 0.1
2016-Jan-14 07:32N 49°20' W 123°13'0 0.2
2016-Jan-14 06:32N 49°20' W 123°13'0 0.0
2016-Jan-14 05:33N 49°20' W 123°13'0 0.0
2016-Jan-14 04:33N 49°20' W 123°13'0 0.0
2016-Jan-14 03:32N 49°20' W 123°13'0 0.0
2016-Jan-14 02:33N 49°20' W 123°13'0 0.0
2016-Jan-14 01:33N 49°20' W 123°13'0 0.0
2016-Jan-14 00:32N 49°20' W 123°13'0 0.2
2016-Jan-13 23:32N 49°20' W 123°13'0 0.0
2016-Jan-13 22:33N 49°20' W 123°13'1010.3
2016-Jan-13 21:33N 49°10' W 123°20'1212.1
2016-Jan-13 20:33N 48°59' W 123°13'1312.7
2016-Jan-13 19:34N 48°49' W 123°01'1211.8
2016-Jan-13 18:33N 48°42' W 123°15'1413.5
2016-Jan-13 17:33N 48°29' W 123°10'1110.7
2016-Jan-13 16:33N 48°21' W 123°22'9 9.2
2016-Jan-13 15:33N 48°13' W 123°29'8 8.2
2016-Jan-13 14:33N 48°13' W 123°41'8 8.0
2016-Jan-13 13:33N 48°13' W 123°53'9 9.4
2016-Jan-13 12:33N 48°17' W 124°06'4012.5
2016-Jan-13 09:23N 48°23' W 125°05'6 7.3
2016-Jan-13 08:32N 48°19' W 125°12'  

Dump ship's entire track history